sensor_id;sensor_type;location;lat;lon;timestamp;P1;durP1;ratioP1;P2;durP2;ratioP2
37205;SDS011;23099;42.636;23.198;2023-04-24T00:00:31;8.75;;;4.40;;
37205;SDS011;23099;42.636;23.198;2023-04-24T00:02:58;11.90;;;4.35;;
37205;SDS011;23099;42.636;23.198;2023-04-24T00:05:24;9.82;;;4.53;;
37205;SDS011;23099;42.636;23.198;2023-04-24T00:07:51;10.70;;;4.63;;
37205;SDS011;23099;42.636;23.198;2023-04-24T00:10:20;8.88;;;4.07;;
37205;SDS011;23099;42.636;23.198;2023-04-24T00:12:47;8.13;;;3.75;;
37205;SDS011;23099;42.636;23.198;2023-04-24T00:15:14;8.38;;;3.65;;
37205;SDS011;23099;42.636;23.198;2023-04-24T00:17:40;7.00;;;3.35;;
37205;SDS011;23099;42.636;23.198;2023-04-24T00:20:07;9.85;;;4.15;;
37205;SDS011;23099;42.636;23.198;2023-04-24T00:22:36;6.68;;;3.38;;
37205;SDS011;23099;42.636;23.198;2023-04-24T00:25:03;8.43;;;3.95;;
37205;SDS011;23099;42.636;23.198;2023-04-24T00:27:31;9.23;;;4.55;;
37205;SDS011;23099;42.636;23.198;2023-04-24T00:30:00;8.88;;;3.83;;
37205;SDS011;23099;42.636;23.198;2023-04-24T00:32:26;9.98;;;4.25;;
37205;SDS011;23099;42.636;23.198;2023-04-24T00:34:53;7.07;;;3.90;;
37205;SDS011;23099;42.636;23.198;2023-04-24T00:37:20;8.82;;;3.60;;
37205;SDS011;23099;42.636;23.198;2023-04-24T00:39:46;8.68;;;4.20;;
37205;SDS011;23099;42.636;23.198;2023-04-24T00:42:13;10.13;;;3.72;;
37205;SDS011;23099;42.636;23.198;2023-04-24T00:44:41;7.32;;;3.90;;
37205;SDS011;23099;42.636;23.198;2023-04-24T00:47:08;6.55;;;3.45;;
37205;SDS011;23099;42.636;23.198;2023-04-24T00:49:36;5.50;;;3.35;;
37205;SDS011;23099;42.636;23.198;2023-04-24T00:52:03;6.95;;;3.83;;
37205;SDS011;23099;42.636;23.198;2023-04-24T00:54:32;9.45;;;3.80;;
37205;SDS011;23099;42.636;23.198;2023-04-24T00:56:59;7.95;;;4.15;;
37205;SDS011;23099;42.636;23.198;2023-04-24T00:59:26;6.82;;;3.88;;
37205;SDS011;23099;42.636;23.198;2023-04-24T01:01:54;6.88;;;4.13;;
37205;SDS011;23099;42.636;23.198;2023-04-24T01:06:48;6.47;;;3.97;;
37205;SDS011;23099;42.636;23.198;2023-04-24T01:09:16;9.38;;;4.40;;
37205;SDS011;23099;42.636;23.198;2023-04-24T01:11:44;7.68;;;3.83;;
37205;SDS011;23099;42.636;23.198;2023-04-24T01:14:11;10.05;;;4.47;;
37205;SDS011;23099;42.636;23.198;2023-04-24T01:16:37;11.25;;;4.80;;
37205;SDS011;23099;42.636;23.198;2023-04-24T01:19:06;10.30;;;5.53;;
37205;SDS011;23099;42.636;23.198;2023-04-24T01:21:33;11.27;;;6.05;;
37205;SDS011;23099;42.636;23.198;2023-04-24T01:24:04;9.07;;;5.53;;
37205;SDS011;23099;42.636;23.198;2023-04-24T01:26:31;11.85;;;6.03;;
37205;SDS011;23099;42.636;23.198;2023-04-24T01:28:58;10.10;;;5.25;;
37205;SDS011;23099;42.636;23.198;2023-04-24T01:31:25;11.25;;;6.28;;
37205;SDS011;23099;42.636;23.198;2023-04-24T01:33:52;12.35;;;5.82;;
37205;SDS011;23099;42.636;23.198;2023-04-24T01:36:19;11.82;;;5.47;;
37205;SDS011;23099;42.636;23.198;2023-04-24T01:38:48;9.70;;;5.88;;
37205;SDS011;23099;42.636;23.198;2023-04-24T01:41:16;10.70;;;5.93;;
37205;SDS011;23099;42.636;23.198;2023-04-24T01:43:42;10.90;;;5.13;;
37205;SDS011;23099;42.636;23.198;2023-04-24T01:46:09;8.88;;;5.03;;
37205;SDS011;23099;42.636;23.198;2023-04-24T01:48:36;8.38;;;5.22;;
37205;SDS011;23099;42.636;23.198;2023-04-24T01:51:03;9.13;;;5.60;;
37205;SDS011;23099;42.636;23.198;2023-04-24T01:53:29;9.02;;;5.05;;
37205;SDS011;23099;42.636;23.198;2023-04-24T01:55:56;10.73;;;6.10;;
37205;SDS011;23099;42.636;23.198;2023-04-24T01:58:25;15.43;;;8.63;;
37205;SDS011;23099;42.636;23.198;2023-04-24T02:00:52;15.30;;;9.55;;
37205;SDS011;23099;42.636;23.198;2023-04-24T02:03:19;18.45;;;9.80;;
37205;SDS011;23099;42.636;23.198;2023-04-24T02:05:45;16.65;;;10.30;;
37205;SDS011;23099;42.636;23.198;2023-04-24T02:08:12;16.48;;;9.50;;
37205;SDS011;23099;42.636;23.198;2023-04-24T02:10:39;13.82;;;9.10;;
37205;SDS011;23099;42.636;23.198;2023-04-24T02:13:05;15.15;;;9.20;;
37205;SDS011;23099;42.636;23.198;2023-04-24T02:15:33;17.08;;;10.60;;
37205;SDS011;23099;42.636;23.198;2023-04-24T02:18:01;20.13;;;10.60;;
37205;SDS011;23099;42.636;23.198;2023-04-24T02:20:27;17.85;;;9.40;;
37205;SDS011;23099;42.636;23.198;2023-04-24T02:22:54;16.95;;;8.35;;
37205;SDS011;23099;42.636;23.198;2023-04-24T02:25:21;14.00;;;8.43;;
37205;SDS011;23099;42.636;23.198;2023-04-24T02:27:48;19.33;;;8.23;;
37205;SDS011;23099;42.636;23.198;2023-04-24T02:30:14;20.38;;;8.73;;
37205;SDS011;23099;42.636;23.198;2023-04-24T02:32:43;18.48;;;9.05;;
37205;SDS011;23099;42.636;23.198;2023-04-24T02:35:09;11.10;;;6.78;;
37205;SDS011;23099;42.636;23.198;2023-04-24T02:37:36;11.05;;;6.65;;
37205;SDS011;23099;42.636;23.198;2023-04-24T02:40:04;12.98;;;6.63;;
37205;SDS011;23099;42.636;23.198;2023-04-24T02:42:32;13.35;;;6.88;;
37205;SDS011;23099;42.636;23.198;2023-04-24T02:44:59;10.38;;;5.40;;
37205;SDS011;23099;42.636;23.198;2023-04-24T02:47:25;9.43;;;5.05;;
37205;SDS011;23099;42.636;23.198;2023-04-24T02:49:54;8.82;;;5.15;;
37205;SDS011;23099;42.636;23.198;2023-04-24T02:52:20;9.38;;;5.38;;
37205;SDS011;23099;42.636;23.198;2023-04-24T02:54:47;8.38;;;5.40;;
37205;SDS011;23099;42.636;23.198;2023-04-24T02:57:14;9.10;;;4.85;;
37205;SDS011;23099;42.636;23.198;2023-04-24T02:59:40;8.60;;;4.53;;
37205;SDS011;23099;42.636;23.198;2023-04-24T03:02:07;10.52;;;4.60;;
37205;SDS011;23099;42.636;23.198;2023-04-24T03:04:34;8.52;;;4.43;;
37205;SDS011;23099;42.636;23.198;2023-04-24T03:07:02;7.38;;;4.30;;
37205;SDS011;23099;42.636;23.198;2023-04-24T03:09:29;8.75;;;3.92;;
37205;SDS011;23099;42.636;23.198;2023-04-24T03:11:56;7.93;;;4.68;;
37205;SDS011;23099;42.636;23.198;2023-04-24T03:14:23;10.18;;;4.30;;
37205;SDS011;23099;42.636;23.198;2023-04-24T03:16:50;7.55;;;4.10;;
37205;SDS011;23099;42.636;23.198;2023-04-24T03:19:16;7.82;;;4.45;;
37205;SDS011;23099;42.636;23.198;2023-04-24T03:21:43;8.63;;;4.57;;
37205;SDS011;23099;42.636;23.198;2023-04-24T03:24:11;8.68;;;4.22;;
37205;SDS011;23099;42.636;23.198;2023-04-24T03:26:38;10.32;;;4.50;;
37205;SDS011;23099;42.636;23.198;2023-04-24T03:29:04;8.57;;;4.43;;
37205;SDS011;23099;42.636;23.198;2023-04-24T03:31:31;11.07;;;5.05;;
37205;SDS011;23099;42.636;23.198;2023-04-24T03:33:58;9.07;;;4.45;;
37205;SDS011;23099;42.636;23.198;2023-04-24T03:36:24;8.05;;;4.80;;
37205;SDS011;23099;42.636;23.198;2023-04-24T03:38:52;8.10;;;4.07;;
37205;SDS011;23099;42.636;23.198;2023-04-24T03:41:20;11.70;;;4.45;;
37205;SDS011;23099;42.636;23.198;2023-04-24T03:43:48;8.93;;;4.55;;
37205;SDS011;23099;42.636;23.198;2023-04-24T03:46:14;9.55;;;4.22;;
37205;SDS011;23099;42.636;23.198;2023-04-24T03:48:41;7.78;;;4.35;;
37205;SDS011;23099;42.636;23.198;2023-04-24T03:51:08;7.68;;;4.32;;
37205;SDS011;23099;42.636;23.198;2023-04-24T03:53:34;6.85;;;3.95;;
37205;SDS011;23099;42.636;23.198;2023-04-24T03:56:01;8.63;;;3.85;;
37205;SDS011;23099;42.636;23.198;2023-04-24T03:58:29;8.35;;;4.25;;
37205;SDS011;23099;42.636;23.198;2023-04-24T04:00:56;7.88;;;3.88;;
37205;SDS011;23099;42.636;23.198;2023-04-24T04:03:23;9.85;;;4.88;;
37205;SDS011;23099;42.636;23.198;2023-04-24T04:05:50;7.55;;;3.58;;
37205;SDS011;23099;42.636;23.198;2023-04-24T04:08:18;7.45;;;3.80;;
37205;SDS011;23099;42.636;23.198;2023-04-24T04:10:44;6.38;;;3.72;;
37205;SDS011;23099;42.636;23.198;2023-04-24T04:13:11;8.57;;;4.60;;
37205;SDS011;23099;42.636;23.198;2023-04-24T04:15:39;10.45;;;4.05;;
37205;SDS011;23099;42.636;23.198;2023-04-24T04:18:06;9.23;;;4.05;;
37205;SDS011;23099;42.636;23.198;2023-04-24T04:20:33;8.23;;;3.80;;
37205;SDS011;23099;42.636;23.198;2023-04-24T04:23:00;8.98;;;4.43;;
37205;SDS011;23099;42.636;23.198;2023-04-24T04:25:27;7.57;;;3.75;;
37205;SDS011;23099;42.636;23.198;2023-04-24T04:27:54;6.72;;;3.88;;
37205;SDS011;23099;42.636;23.198;2023-04-24T04:30:20;8.88;;;4.60;;
37205;SDS011;23099;42.636;23.198;2023-04-24T04:32:49;8.57;;;4.07;;
37205;SDS011;23099;42.636;23.198;2023-04-24T04:35:16;7.93;;;4.07;;
37205;SDS011;23099;42.636;23.198;2023-04-24T04:37:43;8.00;;;3.92;;
37205;SDS011;23099;42.636;23.198;2023-04-24T04:40:10;6.32;;;3.70;;
37205;SDS011;23099;42.636;23.198;2023-04-24T04:42:37;10.43;;;4.63;;
37205;SDS011;23099;42.636;23.198;2023-04-24T04:45:05;8.95;;;3.85;;
37205;SDS011;23099;42.636;23.198;2023-04-24T04:47:34;6.90;;;3.63;;
37205;SDS011;23099;42.636;23.198;2023-04-24T04:50:02;9.68;;;4.07;;
37205;SDS011;23099;42.636;23.198;2023-04-24T04:52:30;7.10;;;4.07;;
37205;SDS011;23099;42.636;23.198;2023-04-24T04:54:57;7.28;;;4.10;;
37205;SDS011;23099;42.636;23.198;2023-04-24T04:57:23;7.45;;;3.72;;
37205;SDS011;23099;42.636;23.198;2023-04-24T04:59:50;12.05;;;4.45;;
37205;SDS011;23099;42.636;23.198;2023-04-24T05:02:17;8.10;;;3.90;;
37205;SDS011;23099;42.636;23.198;2023-04-24T05:04:44;9.73;;;3.92;;
37205;SDS011;23099;42.636;23.198;2023-04-24T05:07:12;10.10;;;4.22;;
37205;SDS011;23099;42.636;23.198;2023-04-24T05:09:39;8.95;;;4.13;;
37205;SDS011;23099;42.636;23.198;2023-04-24T05:12:05;9.98;;;4.82;;
37205;SDS011;23099;42.636;23.198;2023-04-24T05:14:32;10.30;;;4.25;;
37205;SDS011;23099;42.636;23.198;2023-04-24T05:16:59;10.73;;;4.43;;
37205;SDS011;23099;42.636;23.198;2023-04-24T05:19:26;11.15;;;4.55;;
37205;SDS011;23099;42.636;23.198;2023-04-24T05:21:53;8.88;;;4.28;;
37205;SDS011;23099;42.636;23.198;2023-04-24T05:24:21;11.38;;;4.47;;
37205;SDS011;23099;42.636;23.198;2023-04-24T05:26:47;8.32;;;4.20;;
37205;SDS011;23099;42.636;23.198;2023-04-24T05:29:14;8.00;;;3.80;;
37205;SDS011;23099;42.636;23.198;2023-04-24T05:31:41;14.45;;;4.85;;
37205;SDS011;23099;42.636;23.198;2023-04-24T05:34:07;10.07;;;4.15;;
37205;SDS011;23099;42.636;23.198;2023-04-24T05:36:35;10.98;;;4.38;;
37205;SDS011;23099;42.636;23.198;2023-04-24T05:39:01;11.52;;;4.70;;
37205;SDS011;23099;42.636;23.198;2023-04-24T05:41:31;11.45;;;4.38;;
37205;SDS011;23099;42.636;23.198;2023-04-24T05:43:58;11.23;;;4.32;;
37205;SDS011;23099;42.636;23.198;2023-04-24T05:46:24;7.70;;;4.45;;
37205;SDS011;23099;42.636;23.198;2023-04-24T05:48:51;8.25;;;4.20;;
37205;SDS011;23099;42.636;23.198;2023-04-24T05:51:18;12.82;;;5.30;;
37205;SDS011;23099;42.636;23.198;2023-04-24T05:53:44;8.35;;;4.78;;
37205;SDS011;23099;42.636;23.198;2023-04-24T05:56:11;10.43;;;4.30;;
37205;SDS011;23099;42.636;23.198;2023-04-24T05:58:39;12.35;;;5.30;;
37205;SDS011;23099;42.636;23.198;2023-04-24T06:01:06;13.25;;;4.47;;
37205;SDS011;23099;42.636;23.198;2023-04-24T06:03:32;12.10;;;5.20;;
37205;SDS011;23099;42.636;23.198;2023-04-24T06:05:59;12.30;;;4.78;;
37205;SDS011;23099;42.636;23.198;2023-04-24T06:08:26;10.90;;;4.40;;
37205;SDS011;23099;42.636;23.198;2023-04-24T06:10:52;7.55;;;4.40;;
37205;SDS011;23099;42.636;23.198;2023-04-24T06:13:19;8.90;;;4.40;;
37205;SDS011;23099;42.636;23.198;2023-04-24T06:15:47;10.18;;;4.72;;
37205;SDS011;23099;42.636;23.198;2023-04-24T06:18:14;8.63;;;4.03;;
37205;SDS011;23099;42.636;23.198;2023-04-24T06:20:40;8.23;;;3.90;;
37205;SDS011;23099;42.636;23.198;2023-04-24T06:23:07;8.60;;;3.70;;
37205;SDS011;23099;42.636;23.198;2023-04-24T06:25:34;6.93;;;3.45;;
37205;SDS011;23099;42.636;23.198;2023-04-24T06:28:01;8.52;;;3.55;;
37205;SDS011;23099;42.636;23.198;2023-04-24T06:30:27;6.80;;;3.65;;
37205;SDS011;23099;42.636;23.198;2023-04-24T06:32:55;9.30;;;3.80;;
37205;SDS011;23099;42.636;23.198;2023-04-24T06:35:22;7.95;;;3.15;;
37205;SDS011;23099;42.636;23.198;2023-04-24T06:37:49;7.53;;;3.83;;
37205;SDS011;23099;42.636;23.198;2023-04-24T06:40:16;6.78;;;3.55;;
37205;SDS011;23099;42.636;23.198;2023-04-24T06:42:43;7.03;;;3.80;;
37205;SDS011;23099;42.636;23.198;2023-04-24T06:45:10;6.13;;;3.45;;
37205;SDS011;23099;42.636;23.198;2023-04-24T06:47:37;7.35;;;3.70;;
37205;SDS011;23099;42.636;23.198;2023-04-24T06:50:06;8.68;;;3.88;;
37205;SDS011;23099;42.636;23.198;2023-04-24T06:52:33;9.60;;;4.25;;
37205;SDS011;23099;42.636;23.198;2023-04-24T06:55:00;5.63;;;3.20;;
37205;SDS011;23099;42.636;23.198;2023-04-24T06:57:28;8.85;;;4.03;;
37205;SDS011;23099;42.636;23.198;2023-04-24T06:59:55;10.48;;;3.60;;
37205;SDS011;23099;42.636;23.198;2023-04-24T07:02:22;8.45;;;3.75;;
37205;SDS011;23099;42.636;23.198;2023-04-24T07:04:49;6.35;;;3.90;;
37205;SDS011;23099;42.636;23.198;2023-04-24T07:07:17;8.50;;;4.05;;
37205;SDS011;23099;42.636;23.198;2023-04-24T07:09:43;8.50;;;3.78;;
37205;SDS011;23099;42.636;23.198;2023-04-24T07:12:11;6.53;;;3.42;;
37205;SDS011;23099;42.636;23.198;2023-04-24T07:14:38;9.97;;;3.97;;
37205;SDS011;23099;42.636;23.198;2023-04-24T07:17:05;6.78;;;3.13;;
37205;SDS011;23099;42.636;23.198;2023-04-24T07:19:32;9.82;;;3.78;;
37205;SDS011;23099;42.636;23.198;2023-04-24T07:24:29;7.35;;;3.78;;
37205;SDS011;23099;42.636;23.198;2023-04-24T07:26:57;9.27;;;3.45;;
37205;SDS011;23099;42.636;23.198;2023-04-24T07:29:23;9.27;;;4.40;;
37205;SDS011;23099;42.636;23.198;2023-04-24T07:31:50;8.38;;;3.72;;
37205;SDS011;23099;42.636;23.198;2023-04-24T07:34:17;7.78;;;3.70;;
37205;SDS011;23099;42.636;23.198;2023-04-24T07:36:43;7.10;;;3.72;;
37205;SDS011;23099;42.636;23.198;2023-04-24T07:39:10;9.93;;;3.25;;
37205;SDS011;23099;42.636;23.198;2023-04-24T07:41:38;7.05;;;3.28;;
37205;SDS011;23099;42.636;23.198;2023-04-24T07:44:05;7.80;;;3.35;;
37205;SDS011;23099;42.636;23.198;2023-04-24T07:46:32;9.00;;;3.55;;
37205;SDS011;23099;42.636;23.198;2023-04-24T07:48:59;7.70;;;3.40;;
37205;SDS011;23099;42.636;23.198;2023-04-24T07:51:26;6.78;;;3.20;;
37205;SDS011;23099;42.636;23.198;2023-04-24T07:53:53;7.72;;;3.35;;
37205;SDS011;23099;42.636;23.198;2023-04-24T07:56:20;6.00;;;2.92;;
37205;SDS011;23099;42.636;23.198;2023-04-24T07:58:48;9.55;;;3.45;;
37205;SDS011;23099;42.636;23.198;2023-04-24T08:01:14;8.10;;;3.47;;
37205;SDS011;23099;42.636;23.198;2023-04-24T08:03:41;9.93;;;2.70;;
37205;SDS011;23099;42.636;23.198;2023-04-24T08:06:08;6.30;;;3.00;;
37205;SDS011;23099;42.636;23.198;2023-04-24T08:08:35;7.63;;;3.33;;
37205;SDS011;23099;42.636;23.198;2023-04-24T08:11:01;5.35;;;2.50;;
37205;SDS011;23099;42.636;23.198;2023-04-24T08:13:28;7.38;;;2.55;;
37205;SDS011;23099;42.636;23.198;2023-04-24T08:15:57;8.57;;;2.58;;
37205;SDS011;23099;42.636;23.198;2023-04-24T08:18:23;7.55;;;3.10;;
37205;SDS011;23099;42.636;23.198;2023-04-24T08:20:51;6.40;;;2.77;;
37205;SDS011;23099;42.636;23.198;2023-04-24T08:23:18;11.45;;;2.83;;
37205;SDS011;23099;42.636;23.198;2023-04-24T08:25:44;5.50;;;2.35;;
37205;SDS011;23099;42.636;23.198;2023-04-24T08:28:11;5.68;;;2.65;;
37205;SDS011;23099;42.636;23.198;2023-04-24T08:30:38;6.90;;;3.00;;
37205;SDS011;23099;42.636;23.198;2023-04-24T08:33:06;7.43;;;2.95;;
37205;SDS011;23099;42.636;23.198;2023-04-24T08:37:59;7.80;;;2.85;;
37205;SDS011;23099;42.636;23.198;2023-04-24T08:40:27;6.85;;;2.90;;
37205;SDS011;23099;42.636;23.198;2023-04-24T08:42:57;6.63;;;2.67;;
37205;SDS011;23099;42.636;23.198;2023-04-24T08:45:25;6.18;;;2.55;;
37205;SDS011;23099;42.636;23.198;2023-04-24T08:47:52;7.03;;;3.10;;
37205;SDS011;23099;42.636;23.198;2023-04-24T08:50:21;5.93;;;2.65;;
37205;SDS011;23099;42.636;23.198;2023-04-24T08:52:49;11.20;;;2.67;;
37205;SDS011;23099;42.636;23.198;2023-04-24T08:55:18;6.90;;;2.38;;
37205;SDS011;23099;42.636;23.198;2023-04-24T08:57:45;6.07;;;3.05;;
37205;SDS011;23099;42.636;23.198;2023-04-24T09:00:16;8.27;;;3.75;;
37205;SDS011;23099;42.636;23.198;2023-04-24T09:02:44;6.55;;;2.35;;
37205;SDS011;23099;42.636;23.198;2023-04-24T09:05:13;7.97;;;2.70;;
37205;SDS011;23099;42.636;23.198;2023-04-24T09:07:43;7.60;;;2.72;;
37205;SDS011;23099;42.636;23.198;2023-04-24T09:10:11;12.88;;;2.72;;
37205;SDS011;23099;42.636;23.198;2023-04-24T09:12:38;6.80;;;2.53;;
37205;SDS011;23099;42.636;23.198;2023-04-24T09:15:06;4.97;;;2.15;;
37205;SDS011;23099;42.636;23.198;2023-04-24T09:17:34;8.15;;;2.05;;
37205;SDS011;23099;42.636;23.198;2023-04-24T09:20:01;10.73;;;2.20;;
37205;SDS011;23099;42.636;23.198;2023-04-24T09:22:29;8.18;;;2.08;;
37205;SDS011;23099;42.636;23.198;2023-04-24T09:25:01;6.53;;;2.27;;
37205;SDS011;23099;42.636;23.198;2023-04-24T09:27:30;5.55;;;1.75;;
37205;SDS011;23099;42.636;23.198;2023-04-24T09:29:57;7.72;;;2.10;;
37205;SDS011;23099;42.636;23.198;2023-04-24T09:32:25;6.20;;;2.13;;
37205;SDS011;23099;42.636;23.198;2023-04-24T09:35:05;7.28;;;2.08;;
37205;SDS011;23099;42.636;23.198;2023-04-24T09:37:37;8.82;;;2.15;;
37205;SDS011;23099;42.636;23.198;2023-04-24T09:40:13;5.90;;;1.90;;
37205;SDS011;23099;42.636;23.198;2023-04-24T09:42:43;6.43;;;2.10;;
37205;SDS011;23099;42.636;23.198;2023-04-24T09:45:11;7.05;;;2.20;;
37205;SDS011;23099;42.636;23.198;2023-04-24T09:47:38;6.88;;;2.30;;
37205;SDS011;23099;42.636;23.198;2023-04-24T09:50:09;6.78;;;1.80;;
37205;SDS011;23099;42.636;23.198;2023-04-24T09:52:39;5.75;;;2.10;;
37205;SDS011;23099;42.636;23.198;2023-04-24T09:55:10;5.13;;;1.75;;
37205;SDS011;23099;42.636;23.198;2023-04-24T09:57:46;5.43;;;2.47;;
37205;SDS011;23099;42.636;23.198;2023-04-24T10:00:17;6.28;;;1.92;;
37205;SDS011;23099;42.636;23.198;2023-04-24T10:02:49;5.30;;;1.90;;
37205;SDS011;23099;42.636;23.198;2023-04-24T10:05:16;5.50;;;2.00;;
37205;SDS011;23099;42.636;23.198;2023-04-24T10:07:43;5.70;;;1.90;;
37205;SDS011;23099;42.636;23.198;2023-04-24T10:10:10;12.02;;;2.03;;
37205;SDS011;23099;42.636;23.198;2023-04-24T10:12:39;7.75;;;2.08;;
37205;SDS011;23099;42.636;23.198;2023-04-24T10:15:07;3.93;;;1.50;;
37205;SDS011;23099;42.636;23.198;2023-04-24T10:17:39;6.78;;;2.13;;
37205;SDS011;23099;42.636;23.198;2023-04-24T10:20:07;4.60;;;1.60;;
37205;SDS011;23099;42.636;23.198;2023-04-24T10:22:34;5.97;;;1.90;;
37205;SDS011;23099;42.636;23.198;2023-04-24T10:25:03;5.82;;;2.00;;
37205;SDS011;23099;42.636;23.198;2023-04-24T10:27:33;6.25;;;1.98;;
37205;SDS011;23099;42.636;23.198;2023-04-24T10:30:01;7.07;;;1.70;;
37205;SDS011;23099;42.636;23.198;2023-04-24T10:32:28;3.50;;;1.60;;
37205;SDS011;23099;42.636;23.198;2023-04-24T10:34:55;6.68;;;1.80;;
37205;SDS011;23099;42.636;23.198;2023-04-24T10:37:24;6.55;;;1.70;;
37205;SDS011;23099;42.636;23.198;2023-04-24T10:39:52;6.05;;;1.85;;
37205;SDS011;23099;42.636;23.198;2023-04-24T10:42:19;8.00;;;2.37;;
37205;SDS011;23099;42.636;23.198;2023-04-24T10:44:48;8.65;;;2.15;;
37205;SDS011;23099;42.636;23.198;2023-04-24T10:47:15;8.38;;;2.72;;
37205;SDS011;23099;42.636;23.198;2023-04-24T10:49:42;6.13;;;1.83;;
37205;SDS011;23099;42.636;23.198;2023-04-24T10:52:09;7.55;;;2.20;;
37205;SDS011;23099;42.636;23.198;2023-04-24T10:54:40;5.90;;;2.10;;
37205;SDS011;23099;42.636;23.198;2023-04-24T10:57:25;5.43;;;2.25;;
37205;SDS011;23099;42.636;23.198;2023-04-24T11:02:48;5.10;;;2.30;;
37205;SDS011;23099;42.636;23.198;2023-04-24T11:10:38;6.15;;;2.90;;
37205;SDS011;23099;42.636;23.198;2023-04-24T11:13:06;8.02;;;3.22;;
37205;SDS011;23099;42.636;23.198;2023-04-24T11:15:33;7.28;;;3.60;;
37205;SDS011;23099;42.636;23.198;2023-04-24T11:18:01;8.10;;;3.35;;
37205;SDS011;23099;42.636;23.198;2023-04-24T11:20:28;9.80;;;3.33;;
37205;SDS011;23099;42.636;23.198;2023-04-24T11:22:55;14.35;;;5.28;;
37205;SDS011;23099;42.636;23.198;2023-04-24T11:25:30;20.80;;;6.60;;
37205;SDS011;23099;42.636;23.198;2023-04-24T11:30:29;13.43;;;5.88;;
37205;SDS011;23099;42.636;23.198;2023-04-24T11:33:03;12.68;;;4.57;;
37205;SDS011;23099;42.636;23.198;2023-04-24T11:38:06;10.98;;;5.15;;
37205;SDS011;23099;42.636;23.198;2023-04-24T11:40:33;9.70;;;4.95;;
37205;SDS011;23099;42.636;23.198;2023-04-24T11:43:00;12.95;;;5.15;;
37205;SDS011;23099;42.636;23.198;2023-04-24T11:45:27;18.52;;;7.40;;
37205;SDS011;23099;42.636;23.198;2023-04-24T11:47:55;13.15;;;5.25;;
37205;SDS011;23099;42.636;23.198;2023-04-24T11:50:24;12.20;;;8.88;;
37205;SDS011;23099;42.636;23.198;2023-04-24T11:52:52;10.38;;;6.07;;
37205;SDS011;23099;42.636;23.198;2023-04-24T11:55:27;10.23;;;5.47;;
37205;SDS011;23099;42.636;23.198;2023-04-24T11:57:55;11.40;;;5.80;;
37205;SDS011;23099;42.636;23.198;2023-04-24T12:00:23;9.45;;;6.47;;
37205;SDS011;23099;42.636;23.198;2023-04-24T12:02:51;10.38;;;6.00;;
37205;SDS011;23099;42.636;23.198;2023-04-24T12:05:30;6.57;;;3.87;;
37205;SDS011;23099;42.636;23.198;2023-04-24T12:07:57;6.10;;;3.35;;
37205;SDS011;23099;42.636;23.198;2023-04-24T12:10:24;6.75;;;3.97;;
37205;SDS011;23099;42.636;23.198;2023-04-24T12:12:51;7.47;;;3.35;;
37205;SDS011;23099;42.636;23.198;2023-04-24T12:15:22;6.65;;;2.97;;
37205;SDS011;23099;42.636;23.198;2023-04-24T12:17:50;7.57;;;4.18;;
37205;SDS011;23099;42.636;23.198;2023-04-24T12:20:22;5.60;;;3.22;;
37205;SDS011;23099;42.636;23.198;2023-04-24T12:22:53;10.30;;;3.80;;
37205;SDS011;23099;42.636;23.198;2023-04-24T12:25:21;6.88;;;3.25;;
37205;SDS011;23099;42.636;23.198;2023-04-24T12:27:52;6.13;;;2.75;;
37205;SDS011;23099;42.636;23.198;2023-04-24T12:30:19;6.50;;;3.20;;
37205;SDS011;23099;42.636;23.198;2023-04-24T12:32:47;8.07;;;3.22;;
37205;SDS011;23099;42.636;23.198;2023-04-24T12:37:45;8.23;;;4.13;;
37205;SDS011;23099;42.636;23.198;2023-04-24T12:40:13;7.93;;;3.90;;
37205;SDS011;23099;42.636;23.198;2023-04-24T12:50:04;8.18;;;3.00;;
37205;SDS011;23099;42.636;23.198;2023-04-24T12:52:32;8.75;;;3.85;;
37205;SDS011;23099;42.636;23.198;2023-04-24T12:54:59;9.30;;;4.03;;
37205;SDS011;23099;42.636;23.198;2023-04-24T12:57:29;6.50;;;3.17;;
37205;SDS011;23099;42.636;23.198;2023-04-24T12:59:56;9.20;;;3.40;;
37205;SDS011;23099;42.636;23.198;2023-04-24T13:02:24;6.75;;;3.33;;
37205;SDS011;23099;42.636;23.198;2023-04-24T13:04:54;8.18;;;3.10;;
37205;SDS011;23099;42.636;23.198;2023-04-24T13:07:20;6.40;;;3.13;;
37205;SDS011;23099;42.636;23.198;2023-04-24T13:09:48;7.45;;;2.70;;
37205;SDS011;23099;42.636;23.198;2023-04-24T13:12:15;6.32;;;2.70;;
37205;SDS011;23099;42.636;23.198;2023-04-24T13:14:44;7.97;;;3.00;;
37205;SDS011;23099;42.636;23.198;2023-04-24T13:17:11;7.50;;;2.60;;
37205;SDS011;23099;42.636;23.198;2023-04-24T13:19:38;5.57;;;2.55;;
37205;SDS011;23099;42.636;23.198;2023-04-24T13:22:06;5.85;;;2.35;;
37205;SDS011;23099;42.636;23.198;2023-04-24T13:24:35;7.45;;;2.83;;
37205;SDS011;23099;42.636;23.198;2023-04-24T13:27:03;5.82;;;2.47;;
37205;SDS011;23099;42.636;23.198;2023-04-24T13:29:30;6.18;;;2.60;;
37205;SDS011;23099;42.636;23.198;2023-04-24T13:31:58;7.53;;;3.00;;
37205;SDS011;23099;42.636;23.198;2023-04-24T13:34:26;8.43;;;3.15;;
37205;SDS011;23099;42.636;23.198;2023-04-24T13:36:53;6.72;;;2.38;;
37205;SDS011;23099;42.636;23.198;2023-04-24T13:39:21;5.47;;;2.80;;
37205;SDS011;23099;42.636;23.198;2023-04-24T13:41:47;9.93;;;3.60;;
37205;SDS011;23099;42.636;23.198;2023-04-24T13:44:15;6.63;;;2.20;;
37205;SDS011;23099;42.636;23.198;2023-04-24T13:46:42;6.10;;;2.30;;
37205;SDS011;23099;42.636;23.198;2023-04-24T13:49:11;5.90;;;2.60;;
37205;SDS011;23099;42.636;23.198;2023-04-24T13:51:39;6.50;;;2.90;;
37205;SDS011;23099;42.636;23.198;2023-04-24T13:54:07;7.20;;;2.83;;
37205;SDS011;23099;42.636;23.198;2023-04-24T13:56:34;6.25;;;2.38;;
37205;SDS011;23099;42.636;23.198;2023-04-24T13:59:00;8.65;;;2.90;;
37205;SDS011;23099;42.636;23.198;2023-04-24T14:01:27;9.13;;;2.70;;
37205;SDS011;23099;42.636;23.198;2023-04-24T14:03:54;8.57;;;2.20;;
37205;SDS011;23099;42.636;23.198;2023-04-24T14:06:23;7.53;;;1.98;;
37205;SDS011;23099;42.636;23.198;2023-04-24T14:08:51;6.00;;;1.77;;
37205;SDS011;23099;42.636;23.198;2023-04-24T14:11:18;5.75;;;1.83;;
37205;SDS011;23099;42.636;23.198;2023-04-24T14:13:45;7.78;;;2.20;;
37205;SDS011;23099;42.636;23.198;2023-04-24T14:16:12;5.07;;;2.10;;
37205;SDS011;23099;42.636;23.198;2023-04-24T14:18:39;7.63;;;2.13;;
37205;SDS011;23099;42.636;23.198;2023-04-24T14:21:06;9.70;;;1.77;;
37205;SDS011;23099;42.636;23.198;2023-04-24T14:23:34;6.82;;;1.83;;
37205;SDS011;23099;42.636;23.198;2023-04-24T14:26:01;6.20;;;1.67;;
37205;SDS011;23099;42.636;23.198;2023-04-24T14:28:27;5.47;;;1.70;;
37205;SDS011;23099;42.636;23.198;2023-04-24T14:30:54;8.63;;;1.92;;
37205;SDS011;23099;42.636;23.198;2023-04-24T14:33:21;7.07;;;1.58;;
37205;SDS011;23099;42.636;23.198;2023-04-24T14:35:48;6.47;;;1.73;;
37205;SDS011;23099;42.636;23.198;2023-04-24T14:38:14;6.70;;;2.10;;
37205;SDS011;23099;42.636;23.198;2023-04-24T14:40:42;5.60;;;2.00;;
37205;SDS011;23099;42.636;23.198;2023-04-24T14:43:09;5.57;;;1.85;;
37205;SDS011;23099;42.636;23.198;2023-04-24T14:45:36;5.00;;;1.77;;
37205;SDS011;23099;42.636;23.198;2023-04-24T14:48:05;6.95;;;1.90;;
37205;SDS011;23099;42.636;23.198;2023-04-24T14:50:33;6.05;;;2.30;;
37205;SDS011;23099;42.636;23.198;2023-04-24T14:52:59;6.32;;;1.80;;
37205;SDS011;23099;42.636;23.198;2023-04-24T14:55:27;5.90;;;2.00;;
37205;SDS011;23099;42.636;23.198;2023-04-24T14:57:55;7.25;;;2.20;;
37205;SDS011;23099;42.636;23.198;2023-04-24T15:00:22;6.90;;;2.00;;
37205;SDS011;23099;42.636;23.198;2023-04-24T15:02:49;5.18;;;1.55;;